Forside
METAR-TAF:

METAR-TAF

Lufthavne :

London Biggin Hill Airport

London Biggin Hill, England

Breddekreds: 51-19N, længdekreds: 000-02E, højde: 183 m

Aktuelle vejr

Denne rapport blev lavet for 31 minutter siden, kl. 13:50 UTC
Vind 12 kt fra østnordøst, varierende mellem nordnordøst og øst
Temperatur 7°C
Fugtighed 61%
Tryk 1031 hPa
Sigt 10 km eller mere
Spredte skyer i en højde af 4200 ft

METAR: EGKB 311350Z 06012KT 030V090 9999 SCT042 07/M00 Q1031

Tid: 15:21 (14:21 UTC)

Vejrudsigter

Denne rapport blev lavet for 3 timer og 21 minutter siden, kl. 11:00 UTC
Foreløbig gælder fra 31 på 12 UTC til 31 på 21 UTC
Vind 12 kt fra østnordøst
Sigt 10 km eller mere
Spredte skyer i en højde af 3500 ft

TAF: EGKB 311100Z 3112/3121 06012KT 9999 SCT035

Vejrobservationer og prognoser fra mere end 4000 lufthavne (METAR og TAF).

De gule og røde prikker repræsenterer de meteorologiske stationer.

Flyt musen over at se navnet på stationen.

Så klik over at se vejr observationer og prognoser.

At skifte det kort: Klik på de grønne knapper med et sort kors for at zoome ind; på den grønne knap med en bindestreg for at zoome ud; eller på de grønne pile for tilstødende kort.


METAR-TAF: